Pittsburgh, PA (15204)

4:25 PM EST on January 16, 2018 (GMT -0500)
Elliott | | Change Station

Elev 1055 ft 40.45 °N, 80.04 °W | Updated 3 seconds ago

Light Snow
Light Snow
19.2 °F
Feels Like 12 °F
N
4.7
Wind Variable Wind from SW

Today
High -- | Low -- °F
--% Chance of Precip.
Yesterday
High -- | Low -- °F
Precip. -- in
Pressure 30.34 in
Visibility 1.0 miles
Clouds Scattered Clouds 1400 ft
Mostly Cloudy 2200 ft
Overcast 3200 ft
Windchill 12 °F
Dew Point 17 °F
Humidity 90%
Rainfall 0.00 in
Snow Depth Not available.
7:41 AM 5:19 PM
Waning Crescent, 0% visible
SPECI KPIT 162108Z 27008KT 1SM R28R/4500V6000FT -SN SCT014 BKN022 OVC032 M07/M10 A3034 RMK AO2 P0000 T10721100
Pressure 30.34 in
Visibility 1.0 miles
Clouds Scattered Clouds 1400 ft
Mostly Cloudy 2200 ft
Overcast 3200 ft
Windchill 12 °F
Dew Point 17 °F
Humidity 90%
Rainfall 0.00 in
Snow Depth Not available.
7:41 AM 5:19 PM
Waning Crescent, 0% visible
SPECI KPIT 162108Z 27008KT 1SM R28R/4500V6000FT -SN SCT014 BKN022 OVC032 M07/M10 A3034 RMK AO2 P0000 T10721100

Get Severe Weather Alerts

Thanks for signing up!

Be on the lookout for a verification email in your inbox.

You'll start receiving the daily forecast at 6 AM.

×

10-Day Weather Forecast

Almanac

Astronomy

Jan. 16, 2018 Rise Set
Actual Time
Civil Twilight
Nautical Twilight
Astronomical Twilight
Moon
Length of Visible Light
Length of Day
Tomorrow will be .
, % of the Moon is Illuminated

Today's Extremes

State Highs State Lows

Community

WunderPhotos

Category 6

Welcome to Category 6. This is the collective home for Weather Underground's featured writeups by Dr. Jeff Masters (right), Bob Henson (left), Chris Burt, and other regular contributors.

Nearby

Air Quality

  Air Quality AQ Index Pollutant
Not available.

Snow Depth

Station Depth Elevation

Earthquake Activity

City Distance Mag. Time & Date
Minimum magnitude displayed is 2.5.

Coastal Water Temperatures

Place Temperature

Stations

Nearby Weather Stations

Station Location Temp. Windchill Dew Point Humidity Wind Precip. Elev Updated Type
                   

Watches & Warnings

There are currently no watches in effect.